Flight Track Log - Related Links

Times and Time Zones

All times are in EDT time to prevent confusion due to time zone crossing. See the UAL3747 flight status page for this flight to view local times or setup timezone preferences in your user account.

Time Position Orientation Groundspeed Altitude Reporting Facility
EDT Latitude Longitude Course Direction KTS MPH feet Rate Location/Type
Tue 09:03:23 AM 38.9500 -77.5333 270° West 198 228 1,900  Level Potomac TRACON
Tue 09:04:17 AM 38.9333 -77.6000 252° West 259 298 4,100 2,746 Climbing Potomac TRACON
Tue 09:05:00 AM 38.8759 -77.8250 263° West  Level FlightAware Approximate
Tue 09:05:21 AM 38.9158 -77.7019 258° West 260 299 7,300  Level Washington Center
Tue 09:06:00 AM 38.8795 -77.9551 293° West  Level FlightAware Approximate
Tue 09:06:21 AM 38.9225 -77.7875 276° West 272 313 9,500  Level Washington Center
Tue 09:07:00 AM 38.9124 -78.0826 288° West  Level FlightAware Approximate
Tue 09:07:21 AM 38.9289 -77.8944 274° West 284 327 11,200  Level Washington Center
Tue 09:08:00 AM 38.9500 -78.2064 270° West  Level FlightAware Approximate
Tue 09:08:21 AM 38.9411 -78.0122 278° West 313 360 13,500  Level Washington Center
Tue 09:09:21 AM 38.9533 -78.1303 278° West 330 380 15,600 2,100 Climbing Washington Center
Tue 09:10:21 AM 38.9631 -78.2558 276° West 348 400 17,700 1,850 Climbing Washington Center
Tue 09:11:21 AM 38.9664 -78.3842 272° West 355 409 19,300 1,600 Climbing Washington Center
Tue 09:12:21 AM 38.9697 -78.5153 272° West 366 421 20,900 1,500 Climbing Washington Center
Tue 09:13:21 AM 38.9744 -78.6542 273° West 379 436 22,300 1,500 Climbing Washington Center
Tue 09:14:21 AM 38.9792 -78.7906 273° West 386 444 23,900 1,550 Climbing Washington Center
Tue 09:15:21 AM 38.9839 -78.9297 273° West 391 450 25,400 1,350 Climbing Washington Center
Tue 09:16:21 AM 38.9861 -79.0714 271° West 391 450 26,600 1,200 Climbing Washington Center
Tue 09:17:21 AM 38.9903 -79.2131 272° West 397 457 27,800 1,000 Climbing Washington Center
Tue 09:18:21 AM 38.9942 -79.3575 272° West 408 470 28,600 934 Climbing Washington Center
Tue 09:19:23 AM 38.9958 -79.5019 271° West 408 470 29,700 1,000 Climbing Washington Center
Tue 09:20:21 AM 39.0011 -79.6544 273° West 417 480 30,600 1,119 Climbing Washington Center
Tue 09:21:21 AM 39.0022 -79.8014 271° West 422 486 31,900 1,150 Climbing Washington Center
Tue 09:22:21 AM 39.0050 -79.9592 271° West 422 486 32,900 550 Climbing Washington Center
Tue 09:23:21 AM 39.0058 -80.1036 270° West 417 480 33,000 341 Climbing Washington Center
Tue 09:23:49 AM 39.0050 -80.1444 269° West 407 468 33,400 1,333 Climbing Indianapolis Center
Tue 09:24:51 AM 39.0083 -80.2850 272° West 396 456 35,000 1,258 Climbing Indianapolis Center
Tue 09:25:53 AM 39.0250 -80.4456 278° West 382 440 36,000 732 Climbing Indianapolis Center
Tue 09:26:54 AM 39.0611 -80.5772 289° West 389 448 36,500 829 Climbing Indianapolis Center
Tue 09:27:56 AM 39.0953 -80.7042 289° West 377 434 37,700 726 Climbing Indianapolis Center
Tue 09:28:58 AM 39.1278 -80.8294 289° West 370 426 38,000 145 Climbing Indianapolis Center
Tue 09:30:00 AM 39.1631 -80.9575 290° West 379 436 38,000  Level Indianapolis Center
Tue 09:31:02 AM 39.1972 -81.0906 288° West 390 449 38,000  Level Indianapolis Center
Tue 09:32:04 AM 39.2403 -81.2519 289° West 399 459 38,000  Level Indianapolis Center
Tue 09:33:06 AM 39.2756 -81.3883 289° West 402 463 38,000  Level Indianapolis Center
Tue 09:34:08 AM 39.3111 -81.5233 289° West 400 460 38,000  Level Indianapolis Center
Tue 09:35:10 AM 39.3456 -81.6572 288° West 396 456 38,000  Level Indianapolis Center
Tue 09:36:11 AM 39.3794 -81.7911 288° West 394 453 38,000  Level Indianapolis Center
Tue 09:37:13 AM 39.4136 -81.9250 288° West 394 453 38,000  Level Indianapolis Center
Tue 09:38:15 AM 39.4475 -82.0567 288° West 389 448 38,000 -581 Level Indianapolis Center
Tue 09:39:17 AM 39.4842 -82.2036 288° West 394 453 36,800 -1,306 Descending Indianapolis Center
Tue 09:40:19 AM 39.5178 -82.3403 288° West 396 456 35,300 -1,597 Descending Indianapolis Center
Tue 09:41:21 AM 39.5569 -82.4975 288° West 389 448 33,500 -1,113 Descending Indianapolis Center
Tue 09:42:23 AM 39.5886 -82.6233 288° West 369 425 33,000 -242 Descending Indianapolis Center
Tue 09:43:25 AM 39.6203 -82.7494 288° West 364 419 33,000  Level Indianapolis Center
Tue 09:44:27 AM 39.6533 -82.8781 288° West 371 427 33,000 -48 Level Indianapolis Center
Tue 09:45:29 AM 39.6847 -83.0094 287° West 377 434 32,900 -387 Descending Indianapolis Center
Tue 09:46:31 AM 39.7161 -83.1372 288° West 370 426 32,200 -677 Descending Indianapolis Center
Tue 09:47:33 AM 39.7467 -83.2644 287° West 366 421 31,500 -1,065 Descending Indianapolis Center
Tue 09:48:35 AM 39.7781 -83.3981 287° West 378 435 30,000 -726 Descending Indianapolis Center
Tue 09:49:37 AM 39.8117 -83.5375 287° West 382 440 30,000  Level Indianapolis Center
Tue 09:50:39 AM 39.8428 -83.6689 287° West 374 430 30,000 -48 Level Indianapolis Center
Tue 09:51:41 AM 39.8742 -83.8006 287° West 376 433 29,900 -242 Descending Indianapolis Center
Tue 09:52:43 AM 39.9114 -83.9567 287° West 383 441 29,500 -1,065 Descending Indianapolis Center
Tue 09:53:45 AM 39.9425 -84.0908 287° West 384 442 27,700 -1,645 Descending Indianapolis Center
Tue 09:54:47 AM 39.9739 -84.2236 287° West 383 441 26,100 -823 Descending Indianapolis Center
Tue 09:55:49 AM 40.0053 -84.3586 287° West 385 443 26,000 -48 Descending Indianapolis Center
Tue 09:56:51 AM 40.0356 -84.4933 286° West 384 442 26,000 -194 Level Indianapolis Center
Tue 09:57:53 AM 40.0658 -84.6267 287° West 381 438 25,600 -1,113 Descending Indianapolis Center
Tue 09:58:55 AM 40.0825 -84.7672 279° West 400 460 23,700 -2,129 Descending Indianapolis Center
Tue 09:59:57 AM 40.0861 -84.9383 272° West 400 460 21,200 -2,323 Descending Indianapolis Center
Tue 10:00:59 AM 40.0892 -85.0775 272° West 383 441 18,900 -2,129 Descending Indianapolis Center
Tue 10:02:01 AM 40.0928 -85.2122 272° West 370 426 16,800 -2,032 Descending Indianapolis Center
Tue 10:03:03 AM 40.0950 -85.3364 271° West 349 402 14,700 -1,887 Descending Indianapolis Center
Tue 10:04:05 AM 40.0958 -85.4594 271° West 339 390 12,900 -1,742 Descending Indianapolis Center
Tue 10:05:07 AM 40.0981 -85.5828 271° West 337 388 11,100 -1,161 Descending Indianapolis Center
Tue 10:06:09 AM 40.0828 -85.6864 259° West 301 346 10,500 -1,452 Descending Indianapolis Center
Tue 10:07:11 AM 40.0383 -85.7808 238° Southwest 266 306 8,100 -1,500 Descending Indianapolis Center
Tue 10:08:13 AM 39.9953 -85.8650 236° Southwest 264 304 7,400 -903 Descending Indianapolis Center
Tue 10:10:37 AM 39.9000 -86.0500 236° Southwest 246 283 5,000 -735 Descending Indianapolis TRACON
Tue 10:11:37 AM 39.8667 -86.1000 229° Southwest 207 238 4,900 -650 Descending Indianapolis TRACON
Tue 10:12:37 AM 39.8333 -86.1500 229° Southwest 201 231 3,700 -1,111 Descending Indianapolis TRACON
Tue 10:13:25 AM 39.8000 -86.2000 229° Southwest 184 212 2,900 -882 Descending Indianapolis TRACON
Tue 10:14:19 AM 39.7833 -86.2333 237° Southwest 144 166 2,200 -667 Descending Indianapolis TRACON
Tue 10:15:31 AM 39.7500 -86.2667 218° Southwest 118 136 1,500 -583 Descending Indianapolis TRACON

Login

Don't have an account? Register now (free) for customized features, flight alerts, and more!